Time;durP1;ratioP1;P1;durP2;ratioP2;P2;SDS_P1;SDS_P2;PMS_P1;PMS_P2;Temp;Humidity;BMP_temperature;BMP_pressure;BME280_temperature;BME280_humidity;BME280_pressure;Samples;Min_cycle;Max_cycle;Signal;HPM_P1;HPM_P2
2024/03/29 01:47:27;;;;;;;5.43;3.50;;;8.60;37.10;;;;;;10414057;28;20252;-74
2024/03/29 01:52:30;;;;;;;3.73;3.00;;;8.60;37.10;;;;;;10419133;28;20256;-74
2024/03/29 01:57:33;;;;;;;1.60;1.50;;;8.60;37.90;;;;;;10424667;28;20253;-74
2024/03/29 02:02:37;;;;;;;6.87;3.07;;;8.60;36.90;;;;;;10422850;28;20245;-74
2024/03/29 02:07:39;;;;;;;4.77;2.93;;;8.60;36.80;;;;;;10425725;28;20245;-74
2024/03/29 02:12:41;;;;;;;1.87;1.20;;;8.60;36.90;;;;;;10422453;28;20314;-74
2024/03/29 02:17:45;;;;;;;1.67;1.30;;;8.60;36.90;;;;;;10419949;28;20280;-74
2024/03/29 02:22:53;;;;;;;1.00;1.00;;;8.60;36.90;;;;;;10424173;28;20256;-74
2024/03/29 02:27:57;;;;;;;1.07;0.80;;;8.60;36.80;;;;;;10422346;28;20248;-74
2024/03/29 02:32:59;;;;;;;2.90;2.13;;;8.60;36.80;;;;;;10413074;28;20782;-74
2024/03/29 02:38:01;;;;;;;1.40;1.30;;;8.70;37.00;;;;;;10426051;28;20264;-74
2024/03/29 02:43:05;;;;;;;1.90;0.83;;;8.70;36.90;;;;;;10415262;28;20249;-73
2024/03/29 02:48:08;;;;;;;0.80;0.80;;;8.70;37.00;;;;;;10423846;28;20303;-74
2024/03/29 02:53:10;;;;;;;0.63;0.63;;;8.70;37.10;;;;;;10427216;28;21216;-74
2024/03/29 02:58:13;;;;;;;1.40;0.67;;;8.70;37.20;;;;;;10444709;28;20248;-74
2024/03/29 03:03:17;;;;;;;0.70;0.70;;;8.70;37.30;;;;;;10420084;28;20268;-74
2024/03/29 03:13:41;;;;;;;0.60;0.60;;;8.70;37.30;;;;;;10425606;28;20256;-74
2024/03/29 03:18:43;;;;;;;0.70;0.70;;;8.70;37.40;;;;;;10423054;28;20306;-74
2024/03/29 03:23:45;;;;;;;0.60;0.60;;;8.80;37.20;;;;;;10429508;28;20789;-74
2024/03/29 03:28:49;;;;;;;0.57;0.57;;;8.80;37.20;;;;;;10444560;28;20302;-74
2024/03/29 03:33:51;;;;;;;0.60;0.60;;;8.90;37.30;;;;;;10424401;28;20294;-74
2024/03/29 03:38:53;;;;;;;0.53;0.53;;;9.00;37.20;;;;;;10423823;28;20725;-74
2024/03/29 03:43:56;;;;;;;0.50;0.50;;;9.00;37.30;;;;;;10431590;28;20272;-74
2024/03/29 03:48:58;;;;;;;0.53;0.53;;;9.00;37.30;;;;;;10425755;28;20241;-74
2024/03/29 03:54:01;;;;;;;0.60;0.60;;;9.00;37.20;;;;;;10425717;28;20252;-74
2024/03/29 03:59:04;;;;;;;0.50;0.50;;;9.10;37.10;;;;;;10427089;28;20318;-74
2024/03/29 04:04:06;;;;;;;0.70;0.70;;;9.00;37.10;;;;;;10430758;28;20303;-74
2024/03/29 04:09:10;;;;;;;0.50;0.50;;;9.00;37.20;;;;;;10426637;28;20315;-74
2024/03/29 04:14:13;;;;;;;0.50;0.50;;;9.00;37.00;;;;;;10424507;28;20264;-74
2024/03/29 04:19:16;;;;;;;0.50;0.50;;;9.00;37.00;;;;;;10433203;28;20328;-74
2024/03/29 04:24:18;;;;;;;0.70;0.70;;;9.00;37.00;;;;;;10427052;28;20310;-74
2024/03/29 04:29:22;;;;;;;0.60;0.60;;;9.00;36.90;;;;;;10425828;28;20249;-74
2024/03/29 04:34:24;;;;;;;1.23;1.20;;;9.00;36.80;;;;;;10420850;28;20245;-74
2024/03/29 04:39:26;;;;;;;1.33;1.23;;;8.90;36.80;;;;;;10426264;28;20241;-74
2024/03/29 04:44:29;;;;;;;2.00;1.80;;;8.90;36.70;;;;;;10426933;28;20712;-74
2024/03/29 04:49:34;;;;;;;2.93;2.63;;;8.90;36.50;;;;;;10428641;28;20245;-74
2024/03/29 04:54:36;;;;;;;1.87;1.50;;;8.90;36.60;;;;;;10423738;28;20252;-74
2024/03/29 04:59:40;;;;;;;1.10;1.00;;;8.90;36.50;;;;;;10423764;28;20272;-74
2024/03/29 05:04:42;;;;;;;1.60;0.70;;;8.90;36.60;;;;;;10429441;28;20252;-74
2024/03/29 05:09:45;;;;;;;1.33;1.23;;;8.80;36.50;;;;;;10424762;28;20248;-74
2024/03/29 05:14:49;;;;;;;1.40;1.30;;;8.80;36.70;;;;;;10427065;28;20278;-74
2024/03/29 05:19:52;;;;;;;1.80;1.70;;;8.80;36.70;;;;;;10427316;28;20248;-74
2024/03/29 05:24:54;;;;;;;0.97;0.97;;;8.80;36.80;;;;;;10428481;28;20249;-74
2024/03/29 05:29:58;;;;;;;0.80;0.80;;;8.80;36.90;;;;;;10426033;28;20260;-74
2024/03/29 05:35:00;;;;;;;0.60;0.60;;;8.80;36.90;;;;;;10432436;28;20279;-74
2024/03/29 05:40:04;;;;;;;1.07;0.70;;;8.80;37.00;;;;;;10424560;28;20772;-74
2024/03/29 05:45:24;;;;;;;0.50;0.50;;;8.80;37.20;;;;;;10431596;28;20252;-74
2024/03/29 05:50:27;;;;;;;1.17;0.90;;;8.90;37.30;;;;;;10416170;28;20670;-74
2024/03/29 05:55:29;;;;;;;0.67;0.67;;;9.00;37.10;;;;;;10424615;28;20244;-74
2024/03/29 06:00:34;;;;;;;0.43;0.43;;;9.10;37.00;;;;;;10426097;28;20266;-74
2024/03/29 06:05:36;;;;;;;1.83;0.60;;;9.10;36.80;;;;;;10426773;28;20240;-74
2024/03/29 06:10:39;;;;;;;0.67;0.67;;;9.20;37.30;;;;;;10420358;28;20562;-74
2024/03/29 06:21:03;;;;;;;0.70;0.70;;;9.40;37.00;;;;;;10421702;28;20271;-73
2024/03/29 06:26:05;;;;;;;0.67;0.67;;;9.60;36.90;;;;;;10427559;28;20248;-74
2024/03/29 06:31:09;;;;;;;2.13;1.63;;;9.60;36.80;;;;;;10417831;28;20256;-73
2024/03/29 06:36:12;;;;;;;1.30;1.20;;;9.80;36.90;;;;;;10421126;28;20314;-74
2024/03/29 06:41:14;;;;;;;0.80;0.80;;;9.90;37.60;;;;;;10426565;28;20260;-74
2024/03/29 06:46:17;;;;;;;0.80;0.80;;;10.00;36.00;;;;;;10421109;28;20249;-74
2024/03/29 06:51:19;;;;;;;1.10;0.90;;;10.10;35.60;;;;;;10427618;28;20259;-73
2024/03/29 06:56:22;;;;;;;1.30;1.20;;;10.20;35.60;;;;;;10429255;28;20729;-74
2024/03/29 07:01:27;;;;;;;1.40;1.20;;;10.30;35.50;;;;;;10431295;28;20256;-73
2024/03/29 07:06:29;;;;;;;0.80;0.80;;;10.30;35.20;;;;;;10443385;28;20279;-73
2024/03/29 07:11:31;;;;;;;0.70;0.70;;;10.40;35.50;;;;;;10445323;28;20257;-73
2024/03/29 07:16:35;;;;;;;2.47;0.77;;;10.40;35.30;;;;;;10437337;28;20229;-73
2024/03/29 07:21:37;;;;;;;1.70;0.70;;;10.50;35.40;;;;;;10434323;28;20253;-72
2024/03/29 07:26:40;;;;;;;2.20;0.60;;;10.50;35.50;;;;;;10427155;28;20327;-73
2024/03/29 07:31:44;;;;;;;0.80;0.70;;;10.50;35.40;;;;;;10431325;28;20307;-73
2024/03/29 07:36:46;;;;;;;0.73;0.73;;;10.60;35.90;;;;;;10444869;28;20252;-75
2024/03/29 07:41:49;;;;;;;2.53;0.60;;;10.80;35.90;;;;;;10432671;28;20245;-74
2024/03/29 07:46:52;;;;;;;1.73;1.00;;;11.00;35.90;;;;;;10430884;28;20249;-73
2024/03/29 07:51:54;;;;;;;0.80;0.80;;;11.30;35.90;;;;;;10435660;28;20303;-73
2024/03/29 07:56:57;;;;;;;3.37;0.97;;;11.50;35.80;;;;;;10426660;28;20726;-74
2024/03/29 08:02:02;;;;;;;2.20;0.90;;;11.70;36.20;;;;;;10429878;28;20245;-74
2024/03/29 08:07:04;;;;;;;0.70;0.70;;;12.00;36.80;;;;;;10422400;28;20828;-72
2024/03/29 08:12:07;;;;;;;0.87;0.87;;;12.30;36.00;;;;;;10433653;28;20257;-74
2024/03/29 08:17:10;;;;;;;2.13;0.80;;;12.60;35.80;;;;;;10437956;28;20245;-75
2024/03/29 08:22:12;;;;;;;0.70;0.70;;;12.90;35.40;;;;;;10423839;28;20972;-72
2024/03/29 08:27:15;;;;;;;0.80;0.80;;;13.00;35.10;;;;;;10421059;28;20249;-72
2024/03/29 08:32:18;;;;;;;1.60;0.83;;;13.20;35.10;;;;;;10436379;28;20271;-72
2024/03/29 08:37:21;;;;;;;0.80;0.80;;;13.30;34.30;;;;;;10422057;28;21044;-72
2024/03/29 08:42:24;;;;;;;1.00;0.80;;;13.40;34.50;;;;;;10421537;28;20299;-72
2024/03/29 08:47:27;;;;;;;0.60;0.60;;;13.50;34.70;;;;;;10422379;28;20315;-72
2024/03/29 08:52:30;;;;;;;0.60;0.60;;;13.70;34.30;;;;;;10418493;28;20723;-72
2024/03/29 08:57:32;;;;;;;0.50;0.50;;;13.80;34.60;;;;;;10422373;28;20257;-72
2024/03/29 09:02:36;;;;;;;0.60;0.60;;;13.90;34.10;;;;;;10416745;28;20268;-72
2024/03/29 09:07:38;;;;;;;1.40;0.80;;;14.00;33.40;;;;;;10427552;28;20248;-72
2024/03/29 09:12:40;;;;;;;1.10;0.83;;;14.00;33.80;;;;;;10424821;28;20260;-72
2024/03/29 09:17:44;;;;;;;0.60;0.60;;;14.00;34.10;;;;;;10423657;28;20257;-72
2024/03/29 09:22:46;;;;;;;0.83;0.70;;;14.10;33.90;;;;;;10419563;28;20327;-71
2024/03/29 09:27:48;;;;;;;0.70;0.70;;;14.20;34.20;;;;;;10419896;28;20302;-71
2024/03/29 09:32:52;;;;;;;0.60;0.60;;;14.30;34.30;;;;;;10418766;28;20306;-72
2024/03/29 09:37:56;;;;;;;0.70;0.70;;;14.40;33.70;;;;;;10419749;28;20307;-72
2024/03/29 09:43:02;;;;;;;1.00;0.90;;;14.60;34.30;;;;;;10419159;28;20264;-72
2024/03/29 09:48:07;;;;;;;1.87;1.37;;;14.70;33.50;;;;;;10414429;28;20241;-72
2024/03/29 09:53:10;;;;;;;3.23;2.30;;;14.80;33.30;;;;;;10415949;28;21061;-72
2024/03/29 09:58:13;;;;;;;1.30;1.20;;;14.90;33.70;;;;;;10419485;28;20275;-72
2024/03/29 10:03:19;;;;;;;0.80;0.80;;;15.10;33.60;;;;;;10415061;28;20264;-72
2024/03/29 10:08:21;;;;;;;0.60;0.60;;;15.20;33.30;;;;;;10420579;28;20264;-72
2024/03/29 10:13:23;;;;;;;1.03;0.73;;;15.40;33.70;;;;;;10418554;28;20248;-72
2024/03/29 10:18:30;;;;;;;0.70;0.70;;;15.50;33.70;;;;;;10425120;28;20307;-71
2024/03/29 10:23:33;;;;;;;0.87;0.63;;;15.70;32.70;;;;;;10416791;28;20682;-71
2024/03/29 10:28:36;;;;;;;0.50;0.50;;;15.80;32.90;;;;;;10419510;28;20244;-71
2024/03/29 10:33:40;;;;;;;0.70;0.70;;;16.00;33.00;;;;;;10417809;28;20249;-71
2024/03/29 10:38:42;;;;;;;1.53;0.90;;;16.10;33.10;;;;;;10415787;28;20394;-72
2024/03/29 10:43:47;;;;;;;0.60;0.60;;;16.30;33.30;;;;;;10419589;28;20283;-71
2024/03/29 10:48:50;;;;;;;1.03;0.93;;;16.50;33.40;;;;;;10416676;28;20248;-71
2024/03/29 10:53:53;;;;;;;0.70;0.70;;;16.70;33.50;;;;;;10416257;28;20263;-71
2024/03/29 10:59:01;;;;;;;0.97;0.97;;;16.90;32.80;;;;;;10431248;28;21032;-71
2024/03/29 11:04:13;;;;;;;0.70;0.70;;;17.10;32.50;;;;;;10413349;28;20249;-71
2024/03/29 11:09:18;;;;;;;0.60;0.60;;;17.20;32.00;;;;;;10418585;28;20766;-71
2024/03/29 11:14:27;;;;;;;1.43;0.67;;;17.40;32.50;;;;;;10412743;28;20275;-71
2024/03/29 11:19:31;;;;;;;0.70;0.70;;;17.50;32.30;;;;;;10418207;28;20241;-71
2024/03/29 11:24:34;;;;;;;0.80;0.80;;;17.70;32.30;;;;;;10420739;28;20793;-71
2024/03/29 11:29:40;;;;;;;0.80;0.80;;;17.80;32.70;;;;;;10420874;28;20252;-70
2024/03/29 11:34:47;;;;;;;1.77;1.00;;;18.00;32.60;;;;;;10438033;28;20260;-71
2024/03/29 11:39:49;;;;;;;1.90;0.70;;;18.10;31.80;;;;;;10416898;28;20245;-70
2024/03/29 11:44:51;;;;;;;0.80;0.80;;;18.20;32.50;;;;;;10423689;28;20252;-71
2024/03/29 11:49:59;;;;;;;0.70;0.70;;;18.20;32.20;;;;;;10425489;28;20249;-71
2024/03/29 11:55:01;;;;;;;1.00;0.70;;;18.30;31.70;;;;;;10423568;28;20267;-71
2024/03/29 12:00:04;;;;;;;0.80;0.80;;;18.30;32.30;;;;;;10426752;28;20253;-71
2024/03/29 12:05:10;;;;;;;0.80;0.80;;;18.30;32.40;;;;;;10425592;28;20328;-71
2024/03/29 12:10:13;;;;;;;1.33;0.80;;;18.40;31.70;;;;;;10424088;28;20331;-71
2024/03/29 12:15:15;;;;;;;0.90;0.90;;;18.50;31.60;;;;;;10425965;28;20335;-70
2024/03/29 12:20:19;;;;;;;0.70;0.70;;;18.60;31.90;;;;;;10438835;28;20265;-71
2024/03/29 12:25:21;;;;;;;0.60;0.60;;;18.70;31.40;;;;;;10436573;28;20262;-70
2024/03/29 12:30:24;;;;;;;0.80;0.80;;;18.80;31.80;;;;;;10418115;28;20244;-70
2024/03/29 12:35:29;;;;;;;1.00;0.90;;;19.00;31.30;;;;;;10423515;28;20264;-70
2024/03/29 12:40:35;;;;;;;0.70;0.70;;;19.20;30.80;;;;;;10419768;28;20328;-71
2024/03/29 12:45:38;;;;;;;0.80;0.80;;;19.30;31.00;;;;;;10418874;28;20303;-71
2024/03/29 12:50:44;;;;;;;2.10;0.80;;;19.50;31.30;;;;;;10434275;28;20268;-72
2024/03/29 12:55:47;;;;;;;1.10;1.00;;;19.60;29.50;;;;;;10419595;28;20248;-71
2024/03/29 13:00:50;;;;;;;1.00;0.90;;;19.70;30.60;;;;;;10422788;28;20267;-71
2024/03/29 13:05:53;;;;;;;1.10;1.00;;;19.80;30.80;;;;;;10420471;28;20255;-71
2024/03/29 13:10:56;;;;;;;1.30;1.20;;;20.00;30.10;;;;;;10424440;28;20252;-71
2024/03/29 13:15:58;;;;;;;1.67;1.00;;;20.10;30.60;;;;;;10423176;28;20655;-71
2024/03/29 13:21:02;;;;;;;1.03;1.03;;;20.20;30.50;;;;;;10420160;28;20652;-71
2024/03/29 13:26:04;;;;;;;1.43;1.00;;;20.30;30.30;;;;;;10418699;28;20663;-71
2024/03/29 13:31:07;;;;;;;1.30;0.80;;;20.40;30.00;;;;;;10422786;28;20260;-72
2024/03/29 13:36:10;;;;;;;1.00;0.83;;;20.50;30.20;;;;;;10418337;28;20822;-71
2024/03/29 13:41:16;;;;;;;1.40;1.00;;;20.60;30.00;;;;;;10421090;28;20290;-71
2024/03/29 13:46:19;;;;;;;1.13;1.03;;;20.70;30.00;;;;;;10421945;28;21176;-71
2024/03/29 13:51:22;;;;;;;1.10;0.93;;;20.90;29.90;;;;;;10431040;28;20276;-71
2024/03/29 13:56:24;;;;;;;1.13;0.93;;;21.00;29.70;;;;;;10429755;28;20256;-72
2024/03/29 14:01:27;;;;;;;1.13;1.00;;;21.20;29.90;;;;;;10421270;28;20248;-72
2024/03/29 14:06:30;;;;;;;0.97;0.80;;;21.30;29.80;;;;;;10416962;28;20244;-72
2024/03/29 14:11:32;;;;;;;1.10;1.00;;;21.50;29.50;;;;;;10418000;28;20314;-72
2024/03/29 14:16:35;;;;;;;2.17;0.80;;;21.60;29.70;;;;;;10420196;28;20233;-71
2024/03/29 14:21:40;;;;;;;0.70;0.70;;;21.70;29.90;;;;;;10422395;28;20258;-70
2024/03/29 14:26:43;;;;;;;0.97;0.90;;;21.80;29.40;;;;;;10415822;28;20759;-71
2024/03/29 14:31:45;;;;;;;0.90;0.90;;;21.90;29.50;;;;;;10414926;28;20331;-71
2024/03/29 14:36:49;;;;;;;1.10;0.90;;;22.00;29.40;;;;;;10419939;28;20693;-71
2024/03/29 14:41:52;;;;;;;1.13;1.03;;;22.00;28.90;;;;;;10416264;28;20722;-71
2024/03/29 14:46:54;;;;;;;0.87;0.87;;;22.10;29.20;;;;;;10432367;28;20249;-71
2024/03/29 14:51:58;;;;;;;1.43;0.83;;;22.20;29.30;;;;;;10414928;28;20241;-71
2024/03/29 14:57:00;;;;;;;0.83;0.70;;;22.30;28.70;;;;;;10416936;28;20727;-71
2024/03/29 15:02:02;;;;;;;0.93;0.80;;;22.40;29.20;;;;;;10416493;28;20746;-71
2024/03/29 15:07:07;;;;;;;1.03;1.00;;;22.50;28.90;;;;;;10422148;28;20254;-71
2024/03/29 15:12:09;;;;;;;1.10;1.00;;;22.60;28.70;;;;;;10431720;28;20257;-71
2024/03/29 15:17:12;;;;;;;3.83;1.00;;;22.60;28.80;;;;;;10419277;28;20298;-71
2024/03/29 15:22:15;;;;;;;1.10;1.00;;;22.70;28.80;;;;;;10424338;28;20311;-71
2024/03/29 15:27:26;;;;;;;0.70;0.70;;;22.70;28.30;;;;;;10429872;28;20263;-71
2024/03/29 15:32:32;;;;;;;0.80;0.80;;;22.80;28.80;;;;;;10420871;28;20253;-72
2024/03/29 15:37:36;;;;;;;1.50;0.97;;;22.80;28.60;;;;;;10424919;28;20275;-71
2024/03/29 15:42:40;;;;;;;1.90;0.70;;;22.90;28.50;;;;;;10419402;28;20265;-71
2024/03/29 15:47:42;;;;;;;0.73;0.73;;;22.90;28.60;;;;;;10423083;28;20260;-71
2024/03/29 15:52:46;;;;;;;0.80;0.80;;;22.90;28.50;;;;;;10424172;28;20738;-69
2024/03/29 15:57:48;;;;;;;1.00;0.90;;;22.90;28.00;;;;;;10426552;28;20918;-69
2024/03/29 16:02:51;;;;;;;1.33;1.10;;;22.80;28.60;;;;;;10424010;28;20306;-69
2024/03/29 16:07:54;;;;;;;1.03;0.93;;;22.70;28.30;;;;;;10425881;28;20290;-71
2024/03/29 16:12:58;;;;;;;1.10;1.00;;;22.70;28.10;;;;;;10422724;28;20260;-71
2024/03/29 16:18:00;;;;;;;1.43;0.93;;;22.60;28.60;;;;;;10422864;28;20248;-71
2024/03/29 16:23:04;;;;;;;1.50;1.40;;;22.60;28.80;;;;;;10422725;28;20309;-71
2024/03/29 16:28:08;;;;;;;1.00;1.00;;;22.50;28.60;;;;;;10425511;28;20816;-69
2024/03/29 16:33:10;;;;;;;1.10;1.00;;;22.50;28.70;;;;;;10440026;28;20261;-69
2024/03/29 16:38:14;;;;;;;1.00;1.00;;;22.30;28.70;;;;;;10422252;28;20303;-69
2024/03/29 16:43:16;;;;;;;0.90;0.90;;;22.30;28.80;;;;;;10422060;28;20944;-69
2024/03/29 16:48:18;;;;;;;1.10;0.90;;;22.20;28.80;;;;;;10429856;28;20249;-71
2024/03/29 16:53:21;;;;;;;0.70;0.70;;;22.20;29.20;;;;;;10422002;28;20307;-72
2024/03/29 16:58:24;;;;;;;0.80;0.80;;;22.10;29.20;;;;;;10415715;28;20306;-72
2024/03/29 17:03:27;;;;;;;0.90;0.90;;;22.10;29.20;;;;;;10437256;28;20260;-72
2024/03/29 17:08:30;;;;;;;1.00;0.97;;;22.00;29.30;;;;;;10418723;28;20944;-72
2024/03/29 17:13:32;;;;;;;1.77;1.10;;;22.00;29.40;;;;;;10426746;28;20708;-72
2024/03/29 17:18:35;;;;;;;0.90;0.90;;;21.90;29.40;;;;;;10420705;28;20261;-71
2024/03/29 17:23:38;;;;;;;1.43;0.77;;;21.80;29.40;;;;;;10438287;28;20305;-71
2024/03/29 17:28:41;;;;;;;0.90;0.90;;;21.70;29.50;;;;;;10421899;28;20309;-72
2024/03/29 17:33:44;;;;;;;0.90;0.90;;;21.50;29.50;;;;;;10418608;28;20306;-71
2024/03/29 17:38:47;;;;;;;1.00;0.80;;;21.40;29.50;;;;;;10418611;28;20917;-71
2024/03/29 17:43:49;;;;;;;0.73;0.73;;;21.30;29.60;;;;;;10421727;28;20257;-71
2024/03/29 17:48:52;;;;;;;1.53;1.43;;;21.20;29.70;;;;;;10418831;28;20252;-71
2024/03/29 17:53:55;;;;;;;1.60;1.50;;;21.00;29.90;;;;;;10421517;28;20322;-71
2024/03/29 17:58:58;;;;;;;4.33;1.77;;;21.00;30.20;;;;;;10418251;28;20322;-71
2024/03/29 18:04:00;;;;;;;1.60;1.30;;;20.90;30.10;;;;;;10436301;28;20314;-71
2024/03/29 18:09:04;;;;;;;5.63;5.10;;;20.80;30.00;;;;;;10419346;28;20687;-71
2024/03/29 18:14:07;;;;;;;5.13;4.73;;;20.70;30.10;;;;;;10416039;28;20248;-71
2024/03/29 18:19:09;;;;;;;6.13;5.63;;;20.60;30.10;;;;;;10421756;28;20306;-71
2024/03/29 18:24:13;;;;;;;5.50;4.97;;;20.40;30.10;;;;;;10420151;28;20244;-71
2024/03/29 18:29:15;;;;;;;4.83;4.53;;;20.20;30.40;;;;;;10424775;28;20244;-71
2024/03/29 18:34:17;;;;;;;2.80;2.60;;;20.10;30.40;;;;;;10415523;28;20317;-71
2024/03/29 18:39:21;;;;;;;3.90;2.80;;;20.00;30.30;;;;;;10420632;28;20709;-71
2024/03/29 18:44:23;;;;;;;3.30;3.00;;;19.80;30.60;;;;;;10413182;28;20268;-71
2024/03/29 18:49:26;;;;;;;3.63;3.30;;;19.60;30.40;;;;;;10419056;28;20284;-69
2024/03/29 18:54:30;;;;;;;4.60;4.20;;;19.50;30.60;;;;;;10419529;28;20252;-69
2024/03/29 18:59:35;;;;;;;6.93;6.23;;;19.30;30.90;;;;;;10424330;28;20761;-69
2024/03/29 19:04:39;;;;;;;9.17;8.27;;;19.20;30.80;;;;;;10430433;28;20880;-68
2024/03/29 19:09:43;;;;;;;10.60;9.27;;;19.10;30.80;;;;;;10426196;28;20773;-68
2024/03/29 19:14:45;;;;;;;10.20;7.90;;;18.90;31.10;;;;;;10430738;28;20245;-69
2024/03/29 19:19:48;;;;;;;7.93;7.13;;;18.80;30.90;;;;;;10430020;28;20356;-69
2024/03/29 19:24:52;;;;;;;6.80;6.03;;;18.60;31.00;;;;;;10424970;28;20310;-69
2024/03/29 19:29:55;;;;;;;5.63;5.00;;;18.40;31.40;;;;;;10424985;28;20271;-69
2024/03/29 19:34:57;;;;;;;5.93;5.33;;;18.20;31.30;;;;;;10426459;28;20257;-69
2024/03/29 19:40:00;;;;;;;4.70;4.30;;;18.10;31.40;;;;;;10424683;28;20990;-69
2024/03/29 19:45:03;;;;;;;6.03;5.40;;;18.00;31.70;;;;;;10438561;28;20257;-69
2024/03/29 19:50:07;;;;;;;4.83;4.43;;;17.90;31.70;;;;;;10408496;28;20330;-69
2024/03/29 19:55:10;;;;;;;4.57;4.23;;;17.70;32.00;;;;;;10437297;28;20252;-69
2024/03/29 20:00:13;;;;;;;5.57;3.97;;;17.60;32.20;;;;;;10427773;28;20259;-69
2024/03/29 20:05:16;;;;;;;8.80;6.00;;;17.50;32.00;;;;;;10423047;28;20253;-69
2024/03/29 20:10:20;;;;;;;10.93;6.13;;;17.40;32.00;;;;;;10424366;28;20755;-69
2024/03/29 20:15:22;;;;;;;9.73;7.17;;;17.40;32.20;;;;;;10421449;28;20253;-68
2024/03/29 20:20:25;;;;;;;17.23;6.77;;;17.30;31.90;;;;;;10428069;28;20249;-69
2024/03/29 20:25:29;;;;;;;16.60;5.70;;;17.20;31.40;;;;;;10422924;28;21063;-69
2024/03/29 20:30:31;;;;;;;24.93;7.20;;;17.10;31.00;;;;;;10422968;28;20245;-69
2024/03/29 20:35:39;;;;;;;26.17;6.77;;;17.10;30.40;;;;;;10420933;28;20241;-70
2024/03/29 20:40:44;;;;;;;25.27;7.23;;;17.10;29.90;;;;;;10432515;28;20364;-71
2024/03/29 20:45:49;;;;;;;35.47;7.57;;;17.10;30.00;;;;;;10439925;28;20318;-71
2024/03/29 20:50:58;;;;;;;34.67;7.73;;;17.20;29.90;;;;;;10423335;28;20636;-71
2024/03/29 20:56:06;;;;;;;32.23;7.17;;;17.20;28.90;;;;;;10418769;28;20750;-71
2024/03/29 21:01:09;;;;;;;48.43;8.40;;;17.20;28.90;;;;;;10427628;28;20303;-71
2024/03/29 21:06:12;;;;;;;50.10;8.73;;;17.30;29.60;;;;;;10420672;28;20267;-71
2024/03/29 21:11:16;;;;;;;52.37;9.87;;;17.30;29.30;;;;;;10419014;28;20253;-71
2024/03/29 21:16:18;;;;;;;55.23;10.97;;;17.30;28.80;;;;;;10436214;28;20316;-71
2024/03/29 21:21:20;;;;;;;66.53;11.73;;;17.40;29.00;;;;;;10421179;28;20275;-71
2024/03/29 21:26:23;;;;;;;63.30;10.97;;;17.50;28.90;;;;;;10421708;28;20286;-71
2024/03/29 21:31:25;;;;;;;71.60;12.60;;;17.60;28.30;;;;;;10418908;28;20253;-71
2024/03/29 21:36:28;;;;;;;70.37;12.93;;;17.80;28.50;;;;;;10416636;28;20336;-71
2024/03/29 21:41:31;;;;;;;63.07;11.93;;;18.00;28.40;;;;;;10414810;28;20264;-70
2024/03/29 21:46:34;;;;;;;71.10;12.77;;;18.20;27.80;;;;;;10423275;28;20282;-71
2024/03/29 21:51:37;;;;;;;69.30;12.90;;;18.30;28.00;;;;;;10420089;28;20249;-71
2024/03/29 21:56:41;;;;;;;62.37;11.80;;;18.50;27.90;;;;;;10421398;28;20292;-71
2024/03/29 22:01:43;;;;;;;66.63;12.80;;;18.50;27.20;;;;;;10419677;28;20253;-72
2024/03/29 22:06:45;;;;;;;78.33;14.40;;;18.60;27.50;;;;;;10418106;28;20234;-71
2024/03/29 22:11:49;;;;;;;72.03;14.17;;;18.60;27.40;;;;;;10418923;28;20256;-71
2024/03/29 22:16:51;;;;;;;68.17;14.10;;;18.60;26.70;;;;;;10422341;28;20249;-71
2024/03/29 22:21:53;;;;;;;88.03;14.67;;;18.60;27.00;;;;;;10423884;28;20244;-71
2024/03/29 22:26:56;;;;;;;82.83;14.73;;;18.70;27.00;;;;;;10415304;28;20308;-71
2024/03/29 22:31:59;;;;;;;80.43;14.40;;;18.70;26.30;;;;;;10422780;28;20245;-71
2024/03/29 22:37:02;;;;;;;77.57;14.00;;;18.70;26.70;;;;;;10418790;28;20249;-71
2024/03/29 22:42:06;;;;;;;84.17;14.43;;;18.80;26.70;;;;;;10413931;28;20241;-71
2024/03/29 22:47:08;;;;;;;76.73;15.17;;;18.80;26.00;;;;;;10418314;28;20253;-71
2024/03/29 22:52:10;;;;;;;70.77;13.53;;;18.80;26.30;;;;;;10419160;28;20326;-71
2024/03/29 22:57:14;;;;;;;68.83;14.33;;;18.80;26.30;;;;;;10420202;28;20242;-71
2024/03/29 23:02:16;;;;;;;74.53;13.70;;;18.80;25.60;;;;;;10421660;28;20259;-71
2024/03/29 23:07:20;;;;;;;78.07;13.67;;;18.80;26.10;;;;;;10419540;28;20253;-71
2024/03/29 23:12:23;;;;;;;68.47;13.13;;;18.80;26.10;;;;;;10413106;28;20263;-71
2024/03/29 23:17:25;;;;;;;66.93;13.23;;;18.80;26.30;;;;;;10414204;28;20306;-71
2024/03/29 23:22:27;;;;;;;71.37;12.50;;;18.80;25.90;;;;;;10413893;28;20252;-72
2024/03/29 23:27:31;;;;;;;70.97;13.53;;;18.90;26.00;;;;;;10414939;28;20249;-71
2024/03/29 23:32:33;;;;;;;64.47;15.00;;;18.80;25.80;;;;;;10414570;28;20716;-72
2024/03/29 23:37:36;;;;;;;59.20;14.23;;;18.80;26.10;;;;;;10414214;28;20253;-72
2024/03/29 23:42:40;;;;;;;73.73;16.87;;;18.70;26.10;;;;;;10429026;28;20245;-71
2024/03/29 23:47:42;;;;;;;79.80;15.47;;;18.60;25.80;;;;;;10427839;28;20629;-71
2024/03/29 23:52:44;;;;;;;78.60;15.53;;;18.50;25.80;;;;;;10423585;28;20256;-71
2024/03/29 23:57:48;;;;;;;72.00;14.40;;;18.30;25.50;;;;;;10444069;28;20240;-71
